Marshall, CA (94940)

4:28 PM PDT on August 01, 2015 (GMT -0700)
Tomales Bay Oyster Co. Cove | | Change Station
CLOSE
Current Station
Personal Weather Station
Location: Marshall, CA
Elevation: 7 ft
Nearby Weather Stations

Elev 7 ft 38.12 °N, 122.85 °W | Updated 3 minutes ago

Clear
Clear
69.2 °F
Feels Like 69.2 °F
N
7.0
Wind Variable Wind from West
Gusts 13.0 mph

Today
High -- | Low -- °F
--% Chance of Precip.
Yesterday
High -- | Low -- °F
Precip. -- in
6:14 AM 8:21 PM
Full, 97% visible
Pressure 29.95 in
Visibility 10.0 miles
Clouds Clear
Dew Point 61 °F
Humidity 76%
Rainfall 0.00 in
Snow Depth Not available.
UV 7 out of 12
Pollen 4.00 out of 12
Air Quality Not available.
Flu Activity Not available.
METAR KO69 012315Z AUTO 31010G15KT 270V330 10SM CLR 24/14 A2995 RMK AO1

More Conditions Fewer Conditions

Pressure 29.95 in
Visibility 10.0 miles
Clouds Clear
Dew Point 61 °F
Humidity 76%
Rainfall 0.00 in
Snow Depth Not available.
UV 7 out of 12
Pollen 4.00 out of 12
Air Quality Not available.
Flu Activity Not available.
METAR KO69 012315Z AUTO 31010G15KT 270V330 10SM CLR 24/14 A2995 RMK AO1

More Conditions Fewer Conditions

10-Day Weather Forecast

×

Almanac

Astronomy

Aug. 01, 2015 Rise Set
Actual Time
Civil Twilight
Nautical Twilight
Astronomical Twilight
Moon
Length of Visible Light
Length of Day
Tomorrow will be .
, % of the Moon is Illuminated

Today's Extremes

State Highs State Lows

Community

WunderPhotos

Upload Photos

1,843,087 photos uploaded!

WunderBlogs® & News

Nearby

Air Quality

  Air Quality AQ Index Pollutant
Not available.

Snow Depth

Station Depth Elevation

Earthquake Activity

City Distance Mag. Time & Date
Minimum magnitude displayed is 2.5.

Coastal Water Temperatures

Place Temperature

Stations

Nearby Weather Stations

Station Location Temp. Windchill Dew Point Humidity Wind Precip. Elev Updated Type